Marion, IN

2:15 PM EDT on April 19, 2015 (GMT -0400)
Kokomo Municipal | | Change Station
CLOSE
Current Station
Airport
Location: Kokomo,
Elevation: 830 ft
Nearby Weather Stations

Elev 830 ft 40.53 °N, 86.06 °W | Updated 20 minutes ago

Overcast
Overcast
55 °F
Feels Like 55 °F
N
13
Wind Variable Wind from East

Today
High -- | Low -- °F
--% Chance of Precip.
Yesterday
High -- | Low -- °F
Precip. -- in
6:58 AM 8:25 PM
New Moon, 1% visible
Pressure 29.68 in
Visibility 8.0 miles
Clouds Scattered Clouds 1800 ft
Mostly Cloudy 2600 ft
Mostly Cloudy 3200 ft
Dew Point 48 °F
Humidity 77%
Rainfall 0.13 in
Snow Depth Not available.
UV 5 out of 12
Pollen 5.70 out of 12
Air Quality Not available.
Flu Activity Local Activity
METAR KOKK 191755Z AUTO 09011KT 8SM SCT018 BKN026 BKN032 13/09 A2968 RMK AO1 P0006 60007 10160 20090 57034

More Conditions Fewer Conditions

Pressure 29.68 in
Visibility 8.0 miles
Clouds Scattered Clouds 1800 ft
Mostly Cloudy 2600 ft
Mostly Cloudy 3200 ft
Dew Point 48 °F
Humidity 77%
Rainfall 0.13 in
Snow Depth Not available.
UV 5 out of 12
Pollen 5.70 out of 12
Air Quality Not available.
Flu Activity Local Activity
METAR KOKK 191755Z AUTO 09011KT 8SM SCT018 BKN026 BKN032 13/09 A2968 RMK AO1 P0006 60007 10160 20090 57034

More Conditions Fewer Conditions

10-Day Weather Forecast

Almanac

Astronomy

Apr. 19, 2015 Rise Set
Actual Time
Civil Twilight
Nautical Twilight
Astronomical Twilight
Moon
Length of Visible Light
Length of Day
Tomorrow will be .
, % of the Moon is Illuminated

Today's Extremes

State Highs State Lows

Community

WunderPhotos

Upload Photos

1,814,894 photos uploaded!

WunderBlogs® & News

Nearby

Air Quality

  Air Quality AQ Index Pollutant
Not available.

Snow Depth

Station Depth Elevation

Earthquake Activity

City Distance Mag. Time & Date
Minimum magnitude displayed is 2.5.

Coastal Water Temperatures

Place Temperature

Stations

Nearby Weather Stations

Station Location Temp. Windchill Dew Point Humidity Wind Precip. Elev Updated Type